Terminal Aerodrome Forecast
Issued by NWS Charleston, WV

Current Version | Previous Version | Graphics & Text | Print | Product List | Glossary On
Versions: 1 2 3 4 5 6 7 8 9 10 11 12 13 14 15 16 17 18 19 20 21 22
000
FTUS41 KRLX 232320
TAFBKW
TAF
KBKW 232320Z 2400/2424 36004KT P6SM BKN060
      TEMPO 2401/2402 6SM -SHRA BKN045
     FM240400 VRB02KT P6SM SKC
     FM241400 26004KT P6SM SCT045=

USA.gov is the U.S. government's official web portal to all federal, state and local government web resources and services.